Time;durP1;ratioP1;P1;durP2;ratioP2;P2;SDS_P1;SDS_P2;PMS_P1;PMS_P2;Temp;Humidity;BMP_temperature;BMP_pressure;BME280_temperature;BME280_humidity;BME280_pressure;Samples;Min_cycle;Max_cycle;Signal;HPM_P1;HPM_P2
2021/03/21 00:01:51;;;;;;;10.15;6.18;;;6.80;77.80;;;;;;4956763;29;20500;-78
2021/03/21 00:04:16;;;;;;;11.40;5.88;;;6.80;78.00;;;;;;4939241;29;20031;-78
2021/03/21 00:06:43;;;;;;;10.95;6.15;;;6.70;78.20;;;;;;4955251;29;20043;-78
2021/03/21 00:09:11;;;;;;;8.93;6.38;;;6.70;78.60;;;;;;4958850;28;20090;-78
2021/03/21 00:11:37;;;;;;;14.07;6.63;;;6.60;78.70;;;;;;4942607;29;20050;-78
2021/03/21 00:14:04;;;;;;;11.90;7.03;;;6.60;79.00;;;;;;4942974;29;20039;-78
2021/03/21 00:16:31;;;;;;;11.85;6.68;;;6.60;79.10;;;;;;4959833;29;20488;-78
2021/03/21 00:18:57;;;;;;;13.13;6.60;;;6.60;79.50;;;;;;4942752;29;20031;-78
2021/03/21 00:21:24;;;;;;;11.20;6.45;;;6.50;79.70;;;;;;4960633;29;20035;-78
2021/03/21 00:23:51;;;;;;;11.43;6.85;;;6.50;80.00;;;;;;4960049;29;20480;-78
2021/03/21 00:26:17;;;;;;;10.48;6.97;;;6.50;80.40;;;;;;4942128;29;20075;-78
2021/03/21 00:28:44;;;;;;;11.13;7.15;;;6.40;80.80;;;;;;4942610;29;20521;-78
2021/03/21 00:31:12;;;;;;;14.75;8.05;;;6.40;81.50;;;;;;4942130;29;20039;-78
2021/03/21 00:33:39;;;;;;;12.43;7.88;;;6.40;82.10;;;;;;4958514;29;20039;-78
2021/03/21 00:36:08;;;;;;;13.85;8.70;;;6.40;82.70;;;;;;4942634;29;20062;-78
2021/03/21 00:38:37;;;;;;;15.23;8.75;;;6.30;83.00;;;;;;4942154;29;20091;-78
2021/03/21 00:41:05;;;;;;;15.00;8.20;;;6.30;83.50;;;;;;4959890;29;20362;-78
2021/03/21 00:43:31;;;;;;;15.40;8.80;;;6.30;84.00;;;;;;4961116;28;20078;-79
2021/03/21 00:45:57;;;;;;;17.88;9.43;;;6.30;84.50;;;;;;4960726;28;20050;-78
2021/03/21 00:48:26;;;;;;;17.35;9.45;;;6.20;84.80;;;;;;4978809;28;20042;-78
2021/03/21 00:50:53;;;;;;;13.60;8.98;;;6.20;85.00;;;;;;4978783;28;20038;-78
2021/03/21 00:53:20;;;;;;;17.25;9.20;;;6.20;85.20;;;;;;4961160;28;20041;-78
2021/03/21 00:55:46;;;;;;;16.23;9.15;;;6.20;85.20;;;;;;4961022;28;20456;-79
2021/03/21 00:58:12;;;;;;;17.38;9.65;;;6.20;85.20;;;;;;4978060;28;20035;-78
2021/03/21 01:00:44;;;;;;;15.65;9.70;;;6.10;85.10;;;;;;4978181;28;20046;-78
2021/03/21 01:03:10;;;;;;;18.08;8.95;;;6.10;85.00;;;;;;4961517;28;20035;-79
2021/03/21 01:05:38;;;;;;;13.23;9.25;;;6.10;84.80;;;;;;4961162;28;20483;-79
2021/03/21 01:08:30;;;;;;;12.10;8.77;;;6.10;84.80;;;;;;4978485;28;20043;-79
2021/03/21 01:11:06;;;;;;;16.83;8.75;;;6.10;84.70;;;;;;4960493;28;20042;-78
2021/03/21 01:13:33;;;;;;;15.35;9.88;;;6.10;84.60;;;;;;4960509;28;20062;-79
2021/03/21 01:16:00;;;;;;;15.50;8.88;;;6.10;84.70;;;;;;4960631;28;20061;-79
2021/03/21 01:18:29;;;;;;;16.27;9.70;;;6.00;84.70;;;;;;4960678;28;20035;-78
2021/03/21 01:20:55;;;;;;;16.73;9.80;;;6.00;84.70;;;;;;4959584;28;20560;-79
2021/03/21 01:23:21;;;;;;;15.77;9.73;;;5.90;84.90;;;;;;4977978;28;20050;-78
2021/03/21 01:25:48;;;;;;;16.33;9.32;;;5.90;85.00;;;;;;4977482;28;20081;-78
2021/03/21 01:28:30;;;;;;;16.95;9.38;;;5.90;84.90;;;;;;4960425;28;20097;-78
2021/03/21 01:30:59;;;;;;;16.50;9.30;;;5.90;84.90;;;;;;4960683;28;20046;-78
2021/03/21 01:33:26;;;;;;;13.85;9.18;;;5.90;84.70;;;;;;4977669;28;20495;-78
2021/03/21 01:35:53;;;;;;;14.55;9.57;;;5.90;84.60;;;;;;4960284;28;20042;-78
2021/03/21 01:38:20;;;;;;;16.77;9.68;;;5.80;84.40;;;;;;4960426;28;20066;-79
2021/03/21 01:40:48;;;;;;;17.35;9.35;;;5.80;84.30;;;;;;4977359;28;20030;-79
2021/03/21 01:43:16;;;;;;;15.90;9.75;;;5.80;84.20;;;;;;4960343;28;20049;-78
2021/03/21 01:45:44;;;;;;;16.48;9.50;;;5.80;84.10;;;;;;4960012;28;20066;-78
2021/03/21 01:48:21;;;;;;;14.98;9.57;;;5.80;84.00;;;;;;4960566;28;20070;-78
2021/03/21 01:50:46;;;;;;;12.98;9.73;;;5.70;84.20;;;;;;4978120;28;20096;-78
2021/03/21 01:53:14;;;;;;;16.60;9.90;;;5.70;84.40;;;;;;4977389;28;20039;-78
2021/03/21 01:55:40;;;;;;;15.43;9.98;;;5.70;84.60;;;;;;4960512;28;20047;-78
2021/03/21 01:58:07;;;;;;;18.25;9.63;;;5.60;84.70;;;;;;4961136;28;20065;-78
2021/03/21 02:00:35;;;;;;;18.02;10.68;;;5.70;84.90;;;;;;4959971;28;20041;-78
2021/03/21 02:03:01;;;;;;;17.70;10.57;;;5.60;84.90;;;;;;4977538;28;20041;-78
2021/03/21 02:05:27;;;;;;;13.77;10.38;;;5.60;85.20;;;;;;4977215;28;20030;-78
2021/03/21 02:08:15;;;;;;;15.80;10.80;;;5.60;85.20;;;;;;4977818;28;20035;-78
2021/03/21 02:11:05;;;;;;;15.93;10.30;;;5.50;85.40;;;;;;4959712;28;20038;-78
2021/03/21 02:13:59;;;;;;;16.27;10.35;;;5.50;85.60;;;;;;4960254;28;20523;-78
2021/03/21 02:16:33;;;;;;;16.52;11.02;;;5.50;85.80;;;;;;4977604;28;20539;-79
2021/03/21 02:19:18;;;;;;;14.15;10.30;;;5.50;85.80;;;;;;4959879;28;20035;-78
2021/03/21 02:21:48;;;;;;;17.10;10.95;;;5.40;86.00;;;;;;4977178;28;20073;-78
2021/03/21 02:24:32;;;;;;;19.45;11.48;;;5.40;86.20;;;;;;4959819;28;20361;-79
2021/03/21 02:27:28;;;;;;;16.65;10.63;;;5.40;86.30;;;;;;4959768;28;20050;-79
2021/03/21 02:30:02;;;;;;;18.02;11.20;;;5.30;86.40;;;;;;4976913;28;20089;-79
2021/03/21 02:32:50;;;;;;;15.77;11.23;;;5.30;86.70;;;;;;4976954;28;20042;-78
2021/03/21 02:35:28;;;;;;;17.88;11.60;;;5.20;86.80;;;;;;4976587;28;20074;-79
2021/03/21 02:38:05;;;;;;;22.15;12.32;;;5.20;87.00;;;;;;4959172;28;20043;-79
2021/03/21 02:40:33;;;;;;;18.83;11.73;;;5.20;87.30;;;;;;4958999;28;20031;-78
2021/03/21 02:43:07;;;;;;;18.35;12.40;;;5.20;87.90;;;;;;4959377;28;20377;-78
2021/03/21 02:45:37;;;;;;;15.35;11.80;;;5.20;87.30;;;;;;4958642;28;20066;-78
2021/03/21 02:48:20;;;;;;;19.70;11.15;;;5.10;87.30;;;;;;4959177;28;20126;-78
2021/03/21 02:50:54;;;;;;;20.00;11.90;;;5.10;87.30;;;;;;4958685;28;20149;-79
2021/03/21 02:53:41;;;;;;;17.38;11.90;;;5.10;87.10;;;;;;4959504;28;20042;-79
2021/03/21 02:56:11;;;;;;;20.80;11.98;;;5.00;87.30;;;;;;4976116;28;20034;-79
2021/03/21 02:58:42;;;;;;;19.00;11.70;;;5.00;87.30;;;;;;4958698;28;20041;-79
2021/03/21 03:01:25;;;;;;;17.20;11.80;;;5.00;87.30;;;;;;4959216;28;20062;-79
2021/03/21 03:03:56;;;;;;;19.58;11.68;;;5.00;87.30;;;;;;4958610;28;20089;-79
2021/03/21 03:06:39;;;;;;;18.55;11.43;;;4.90;87.10;;;;;;4976654;28;20064;-79
2021/03/21 03:09:12;;;;;;;21.07;11.80;;;4.90;87.20;;;;;;4976542;28;20129;-79
2021/03/21 03:12:09;;;;;;;17.30;12.23;;;4.80;87.40;;;;;;4958326;28;20042;-79
2021/03/21 03:14:38;;;;;;;21.67;12.63;;;4.90;87.20;;;;;;4967568;28;20042;-79
2021/03/21 03:17:22;;;;;;;17.63;12.60;;;4.80;87.20;;;;;;4975959;28;20089;-79
2021/03/21 03:19:54;;;;;;;19.65;12.93;;;4.80;87.30;;;;;;4974786;28;20090;-79
2021/03/21 03:23:01;;;;;;;20.60;11.95;;;4.80;87.40;;;;;;4975625;28;20373;-79
2021/03/21 03:25:42;;;;;;;17.50;11.98;;;4.70;87.60;;;;;;4958199;28;20035;-79
2021/03/21 03:28:19;;;;;;;21.33;12.43;;;4.70;87.50;;;;;;4958505;28;20035;-79
2021/03/21 03:30:50;;;;;;;19.02;12.93;;;4.70;87.40;;;;;;4976062;28;20043;-79
2021/03/21 03:33:18;;;;;;;21.52;12.52;;;4.60;87.70;;;;;;4976017;28;20499;-79
2021/03/21 03:35:44;;;;;;;17.88;13.15;;;4.60;87.80;;;;;;4958649;28;20035;-80
2021/03/21 03:38:12;;;;;;;17.77;12.60;;;4.60;87.90;;;;;;4958250;28;20399;-79
2021/03/21 03:40:41;;;;;;;19.30;12.55;;;4.60;88.20;;;;;;4957993;28;20122;-78
2021/03/21 03:43:45;;;;;;;23.17;13.43;;;4.60;88.30;;;;;;4960755;28;20145;-78
2021/03/21 03:46:32;;;;;;;21.17;13.83;;;4.50;88.30;;;;;;4964857;28;20130;-78
2021/03/21 03:49:18;;;;;;;17.55;13.30;;;4.50;88.40;;;;;;4965062;28;20038;-78
2021/03/21 03:52:18;;;;;;;20.80;12.93;;;4.50;88.40;;;;;;4982992;28;20576;-80
2021/03/21 03:54:58;;;;;;;21.23;12.57;;;4.50;88.50;;;;;;4964275;28;20066;-79
2021/03/21 03:57:34;;;;;;;21.30;13.73;;;4.50;88.60;;;;;;4982681;28;20039;-80
2021/03/21 04:00:24;;;;;;;23.08;13.90;;;4.40;88.50;;;;;;4964777;28;20121;-80
2021/03/21 04:03:06;;;;;;;19.85;13.27;;;4.40;88.70;;;;;;4964710;28;20070;-80
2021/03/21 04:05:46;;;;;;;22.50;13.45;;;4.40;88.80;;;;;;4965164;28;20125;-80
2021/03/21 04:08:21;;;;;;;24.95;14.23;;;4.40;88.60;;;;;;4982291;28;20034;-80
2021/03/21 04:10:53;;;;;;;20.45;13.20;;;4.40;88.70;;;;;;4982858;28;20101;-81
2021/03/21 04:13:42;;;;;;;21.92;15.15;;;4.30;88.80;;;;;;4964812;28;20042;-80
2021/03/21 04:16:13;;;;;;;21.42;13.80;;;4.30;89.00;;;;;;4982320;28;20046;-80
2021/03/21 04:18:48;;;;;;;20.00;13.57;;;4.30;89.00;;;;;;4981904;28;20400;-79
2021/03/21 04:21:32;;;;;;;21.02;14.07;;;4.30;88.90;;;;;;4965066;28;20129;-79
2021/03/21 04:24:30;;;;;;;27.42;13.80;;;4.30;88.90;;;;;;4964748;28;20038;-79
2021/03/21 04:27:36;;;;;;;20.52;14.05;;;4.30;88.90;;;;;;4956495;28;20097;-79
2021/03/21 04:30:22;;;;;;;20.63;13.63;;;4.30;88.90;;;;;;4978048;28;20066;-78
2021/03/21 04:32:51;;;;;;;20.95;13.80;;;4.30;88.90;;;;;;4982382;28;20117;-78
2021/03/21 04:35:36;;;;;;;23.63;14.13;;;4.20;89.20;;;;;;4964334;28;20057;-78
2021/03/21 04:38:13;;;;;;;21.67;14.00;;;4.20;89.30;;;;;;4964148;28;20085;-78
2021/03/21 04:40:39;;;;;;;18.92;13.20;;;4.20;89.20;;;;;;4963948;28;20035;-79
2021/03/21 04:43:17;;;;;;;23.15;14.32;;;4.10;89.00;;;;;;4963995;28;20049;-80
2021/03/21 04:45:51;;;;;;;20.20;13.95;;;4.10;89.10;;;;;;4981962;28;20503;-79
2021/03/21 04:48:23;;;;;;;21.88;14.43;;;4.10;89.20;;;;;;4964483;28;20113;-78
2021/03/21 04:50:59;;;;;;;21.35;14.68;;;4.10;89.30;;;;;;4963872;28;20530;-78
2021/03/21 04:53:46;;;;;;;22.08;14.65;;;4.10;89.50;;;;;;4963879;28;20046;-79
2021/03/21 04:56:18;;;;;;;20.10;13.85;;;4.00;89.60;;;;;;4959927;28;20038;-79
2021/03/21 04:58:50;;;;;;;25.35;14.90;;;4.00;89.70;;;;;;4978844;28;20122;-79
2021/03/21 05:01:52;;;;;;;22.83;14.52;;;4.00;89.60;;;;;;4960827;28;20459;-79
2021/03/21 05:04:24;;;;;;;20.05;14.18;;;3.90;89.80;;;;;;4961263;28;20555;-79
2021/03/21 05:07:20;;;;;;;21.90;14.63;;;3.90;89.80;;;;;;4978508;28;20046;-79
2021/03/21 05:09:48;;;;;;;20.42;14.27;;;3.90;89.70;;;;;;4978613;28;20042;-80
2021/03/21 05:12:36;;;;;;;24.38;15.38;;;3.90;89.90;;;;;;4978742;28;20035;-80
2021/03/21 05:15:08;;;;;;;24.80;15.48;;;3.90;89.90;;;;;;4978149;28;20043;-80
2021/03/21 05:17:55;;;;;;;20.95;14.75;;;4.00;89.80;;;;;;4978767;28;20093;-80
2021/03/21 05:20:41;;;;;;;22.65;14.93;;;3.90;89.70;;;;;;4978172;28;20046;-80
2021/03/21 05:23:43;;;;;;;22.70;15.05;;;4.00;89.70;;;;;;4961228;28;20073;-80
2021/03/21 05:26:20;;;;;;;22.33;15.45;;;3.90;89.70;;;;;;4960448;28;20082;-80
2021/03/21 05:29:10;;;;;;;21.80;15.07;;;3.90;89.80;;;;;;4978610;28;20547;-80
2021/03/21 05:31:36;;;;;;;25.63;15.55;;;3.90;89.70;;;;;;4960550;28;20515;-80
2021/03/21 05:34:02;;;;;;;24.13;14.88;;;3.90;89.80;;;;;;4977727;28;20055;-80
2021/03/21 05:37:02;;;;;;;22.17;15.52;;;3.90;90.00;;;;;;4960226;28;20072;-80
2021/03/21 05:39:31;;;;;;;26.55;15.55;;;3.90;90.00;;;;;;4960591;28;20038;-80
2021/03/21 05:42:27;;;;;;;27.05;15.65;;;3.80;90.00;;;;;;4970708;28;20063;-80
2021/03/21 05:45:25;;;;;;;22.50;14.77;;;3.80;90.10;;;;;;4940947;29;20488;-80
2021/03/21 05:47:57;;;;;;;25.27;16.48;;;3.80;90.10;;;;;;4919222;29;20047;-80
2021/03/21 05:51:00;;;;;;;25.38;16.55;;;3.80;90.30;;;;;;4958227;29;20488;-80
2021/03/21 05:54:20;;;;;;;24.30;17.00;;;3.80;90.20;;;;;;4942009;29;20113;-80
2021/03/21 05:57:13;;;;;;;30.13;16.80;;;3.80;90.20;;;;;;4934813;29;20515;-81
2021/03/21 06:00:09;;;;;;;26.27;16.80;;;3.80;90.30;;;;;;4940710;29;20067;-81
2021/03/21 06:03:23;;;;;;;28.13;16.40;;;3.80;90.20;;;;;;4940838;29;20069;-80
2021/03/21 06:06:16;;;;;;;25.67;17.23;;;3.80;90.20;;;;;;4919063;29;20039;-80
2021/03/21 06:08:58;;;;;;;24.95;16.58;;;3.90;90.20;;;;;;4940894;29;20392;-80
2021/03/21 06:11:31;;;;;;;28.50;16.77;;;3.80;90.20;;;;;;4939916;29;20118;-80
2021/03/21 06:14:19;;;;;;;27.90;16.80;;;3.90;90.30;;;;;;4940067;29;20496;-80
2021/03/21 06:17:09;;;;;;;26.25;17.77;;;3.90;90.20;;;;;;4958231;29;20050;-80
2021/03/21 06:20:12;;;;;;;32.10;16.42;;;3.90;90.30;;;;;;4940462;29;20043;-80
2021/03/21 06:22:53;;;;;;;27.33;16.40;;;3.90;90.20;;;;;;4940243;29;20588;-80
2021/03/21 06:25:41;;;;;;;25.73;17.90;;;3.90;90.10;;;;;;4939643;29;20038;-79
2021/03/21 06:28:31;;;;;;;28.00;16.67;;;3.90;90.10;;;;;;4939684;29;20039;-80
2021/03/21 06:31:28;;;;;;;25.20;17.20;;;3.90;90.00;;;;;;4934914;29;20039;-80
2021/03/21 06:34:13;;;;;;;24.58;16.70;;;4.00;90.00;;;;;;4940431;29;20448;-80
2021/03/21 06:37:18;;;;;;;27.20;17.17;;;4.10;89.90;;;;;;4939464;29;20058;-80
2021/03/21 06:40:19;;;;;;;26.00;16.95;;;4.10;89.70;;;;;;4917714;29;20411;-80
2021/03/21 06:43:16;;;;;;;26.92;17.23;;;4.10;89.60;;;;;;4952593;28;20054;-80
2021/03/21 06:46:01;;;;;;;28.17;16.35;;;4.20;89.80;;;;;;4958639;28;20051;-80
2021/03/21 06:48:47;;;;;;;;;;;4.30;89.10;;;;;;4959300;28;20047;-80
2021/03/21 06:51:31;;;;;;;24.50;15.82;;;4.30;88.60;;;;;;4958553;28;19910;-80
2021/03/21 06:54:26;;;;;;;26.42;16.70;;;4.20;88.60;;;;;;4958666;28;20042;-80
2021/03/21 06:57:08;;;;;;;24.17;16.85;;;4.30;88.60;;;;;;4975706;28;20089;-80
2021/03/21 06:59:53;;;;;;;27.52;17.98;;;4.20;88.70;;;;;;4976407;28;20039;-79
2021/03/21 07:02:38;;;;;;;23.33;16.40;;;4.20;88.60;;;;;;4975909;28;20031;-80
2021/03/21 07:05:09;;;;;;;24.58;16.90;;;4.30;88.50;;;;;;4976397;28;20046;-79
2021/03/21 07:07:54;;;;;;;27.83;17.33;;;4.40;87.90;;;;;;4977651;28;20039;-81
2021/03/21 07:10:38;;;;;;;;;;;4.50;87.90;;;;;;4959405;28;20043;-80
2021/03/21 07:13:31;;;;;;;27.42;17.42;;;4.50;87.50;;;;;;4976948;28;19917;-80
2021/03/21 07:16:36;;;;;;;26.25;16.42;;;4.50;87.60;;;;;;4964538;28;20046;-80
2021/03/21 07:19:38;;;;;;;22.98;16.15;;;4.50;87.20;;;;;;4974804;28;20034;-79
2021/03/21 07:22:35;;;;;;;25.60;16.58;;;4.50;87.30;;;;;;4996453;28;20038;-80
2021/03/21 07:25:03;;;;;;;26.65;16.52;;;4.60;86.80;;;;;;4984496;28;20062;-81
2021/03/21 07:27:52;;;;;;;26.63;15.80;;;4.70;86.50;;;;;;4958696;28;20034;-79
2021/03/21 07:30:31;;;;;;;25.73;16.00;;;4.70;86.40;;;;;;4958235;28;20074;-80
2021/03/21 07:33:09;;;;;;;25.98;16.85;;;4.90;85.90;;;;;;4958258;28;20043;-77
2021/03/21 07:35:38;;;;;;;26.08;16.83;;;4.90;85.50;;;;;;4959273;28;20094;-78
2021/03/21 07:38:13;;;;;;;24.60;16.45;;;5.00;85.30;;;;;;4958846;28;20097;-78
2021/03/21 07:40:56;;;;;;;23.20;16.25;;;5.10;84.70;;;;;;4958015;28;20108;-78
2021/03/21 07:43:31;;;;;;;28.05;16.23;;;5.10;84.90;;;;;;4975109;28;20515;-78
2021/03/21 07:46:23;;;;;;;25.83;15.48;;;5.20;84.60;;;;;;4958326;28;20035;-77
2021/03/21 07:49:07;;;;;;;26.60;17.42;;;5.30;84.10;;;;;;4975806;28;20050;-78
2021/03/21 07:51:51;;;;;;;23.45;16.70;;;5.40;83.50;;;;;;4977764;28;20042;-77
2021/03/21 07:54:37;;;;;;;22.65;15.98;;;5.40;83.50;;;;;;4975755;28;20058;-78
2021/03/21 07:57:19;;;;;;;25.17;17.35;;;5.50;83.20;;;;;;4975359;28;20038;-79
2021/03/21 07:59:46;;;;;;;25.67;17.08;;;5.50;83.10;;;;;;4958077;28;20177;-78
2021/03/21 08:02:14;;;;;;;23.75;15.98;;;5.70;82.90;;;;;;4975454;28;20035;-79
2021/03/21 08:04:48;;;;;;;22.35;16.10;;;5.80;82.30;;;;;;4975594;28;20086;-78
2021/03/21 08:07:22;;;;;;;24.75;16.30;;;5.90;82.00;;;;;;4975116;28;20047;-78
2021/03/21 08:09:49;;;;;;;21.85;15.57;;;6.10;81.70;;;;;;4975400;28;20046;-79
2021/03/21 08:12:18;;;;;;;22.35;15.63;;;6.20;81.10;;;;;;4958092;28;20041;-78
2021/03/21 08:14:48;;;;;;;23.98;15.93;;;6.40;80.50;;;;;;4953381;28;20074;-79
2021/03/21 08:17:28;;;;;;;24.25;15.50;;;6.60;80.00;;;;;;4973544;28;20093;-76
2021/03/21 08:20:00;;;;;;;20.70;15.43;;;6.70;79.30;;;;;;4975197;28;20113;-76
2021/03/21 08:22:31;;;;;;;24.60;16.00;;;6.70;79.30;;;;;;4957995;28;20571;-77
2021/03/21 08:25:30;;;;;;;22.63;16.17;;;6.90;79.00;;;;;;4974028;28;20049;-78
2021/03/21 08:27:57;;;;;;;24.23;17.40;;;7.10;78.50;;;;;;4975819;28;20049;-83
2021/03/21 08:30:43;;;;;;;23.48;15.57;;;7.20;78.10;;;;;;4962031;28;20137;-79
2021/03/21 08:33:11;;;;;;;23.30;16.23;;;7.40;77.80;;;;;;4981265;28;20043;-78
2021/03/21 08:35:36;;;;;;;22.38;16.73;;;7.50;77.10;;;;;;4978906;28;20051;-77
2021/03/21 08:38:20;;;;;;;20.23;14.80;;;7.60;76.80;;;;;;4961587;28;20061;-75
2021/03/21 08:40:47;;;;;;;22.13;16.05;;;7.80;76.20;;;;;;4978602;28;20031;-79
2021/03/21 08:43:24;;;;;;;22.30;14.85;;;8.10;74.90;;;;;;4976955;28;20109;-78
2021/03/21 08:45:56;;;;;;;24.70;14.95;;;8.30;73.70;;;;;;4998079;28;20122;-87
2021/03/21 08:48:25;;;;;;;24.27;15.30;;;8.40;73.20;;;;;;4980553;28;20057;-77
2021/03/21 08:50:56;;;;;;;20.60;15.35;;;8.40;73.70;;;;;;4997868;28;20129;-78
2021/03/21 08:53:25;;;;;;;26.05;16.75;;;8.50;73.60;;;;;;4980249;28;20035;-75
2021/03/21 08:56:19;;;;;;;23.40;15.43;;;8.70;72.40;;;;;;4997401;28;20092;-77
2021/03/21 08:58:47;;;;;;;20.27;15.07;;;8.90;71.70;;;;;;4997686;28;20510;-77
2021/03/21 09:01:24;;;;;;;18.92;15.50;;;9.10;71.30;;;;;;4998094;28;20030;-75
2021/03/21 09:03:52;;;;;;;19.45;14.98;;;9.20;71.20;;;;;;4997439;28;20046;-76
2021/03/21 09:06:44;;;;;;;20.42;14.95;;;9.40;70.40;;;;;;4995948;28;20050;-76
2021/03/21 09:09:27;;;;;;;20.60;15.20;;;9.50;70.00;;;;;;4979782;28;20573;-74
2021/03/21 09:11:59;;;;;;;20.52;14.88;;;9.50;70.20;;;;;;4979425;28;20577;-73
2021/03/21 09:14:31;;;;;;;20.20;15.32;;;9.50;70.30;;;;;;4996120;28;20049;-74
2021/03/21 09:17:17;;;;;;;20.52;14.35;;;9.50;70.00;;;;;;4996824;28;20038;-74
2021/03/21 09:19:45;;;;;;;21.35;14.90;;;9.60;70.40;;;;;;4979504;28;20043;-74
2021/03/21 09:22:30;;;;;;;17.90;15.02;;;9.70;70.50;;;;;;4997125;28;20038;-74
2021/03/21 09:25:04;;;;;;;18.20;14.60;;;9.90;69.90;;;;;;4996930;28;20062;-74
2021/03/21 09:27:33;;;;;;;21.03;14.50;;;10.00;69.50;;;;;;4997162;28;20046;-74
2021/03/21 09:30:09;;;;;;;20.10;14.10;;;10.10;69.00;;;;;;4997174;28;20046;-76
2021/03/21 09:32:35;;;;;;;19.98;14.30;;;10.40;67.70;;;;;;4996875;28;20042;-75
2021/03/21 09:35:39;;;;;;;17.60;12.88;;;10.40;66.80;;;;;;4996902;28;20503;-75
2021/03/21 09:38:23;;;;;;;23.17;14.45;;;10.50;66.10;;;;;;4997324;28;20093;-73
2021/03/21 09:40:59;;;;;;;16.55;13.40;;;10.60;65.30;;;;;;4995902;28;20103;-75
2021/03/21 09:43:29;;;;;;;17.02;14.02;;;10.90;65.50;;;;;;4995980;28;20047;-73
2021/03/21 09:46:36;;;;;;;19.88;13.75;;;11.10;64.70;;;;;;4996959;28;20143;-74
2021/03/21 09:49:17;;;;;;;13.27;11.18;;;11.30;63.50;;;;;;4996911;28;20034;-73
2021/03/21 09:52:08;;;;;;;14.50;11.52;;;11.40;61.50;;;;;;4997097;28;20051;-73
2021/03/21 09:54:56;;;;;;;13.15;11.57;;;11.70;61.10;;;;;;4996804;28;20034;-73
2021/03/21 09:57:45;;;;;;;12.88;11.40;;;11.90;60.30;;;;;;4978983;28;20082;-74
2021/03/21 10:00:18;;;;;;;14.68;11.10;;;12.00;60.00;;;;;;4978941;28;20088;-73
2021/03/21 10:02:51;;;;;;;13.32;10.63;;;12.00;60.70;;;;;;4996945;28;20045;-73
2021/03/21 10:05:36;;;;;;;15.25;11.23;;;12.00;59.50;;;;;;4978872;28;20380;-74
2021/03/21 10:08:26;;;;;;;13.23;11.02;;;11.90;59.80;;;;;;4978785;28;20100;-74
2021/03/21 10:11:03;;;;;;;15.48;10.98;;;11.70;60.20;;;;;;4996628;28;20089;-73
2021/03/21 10:13:41;;;;;;;15.93;10.32;;;11.60;60.10;;;;;;4996377;28;20546;-73
2021/03/21 10:16:27;;;;;;;12.18;9.43;;;11.70;60.30;;;;;;4996574;28;20062;-73
2021/03/21 10:18:59;;;;;;;13.95;10.07;;;11.70;59.30;;;;;;4996550;28;20121;-73
2021/03/21 10:21:25;;;;;;;14.60;10.18;;;11.70;59.70;;;;;;4996808;28;20030;-74
2021/03/21 10:23:51;;;;;;;12.73;9.68;;;11.50;60.50;;;;;;4996123;28;20048;-73
2021/03/21 10:26:22;;;;;;;13.25;10.38;;;11.30;60.30;;;;;;4995893;28;20049;-73
2021/03/21 10:28:56;;;;;;;11.60;9.63;;;11.30;61.00;;;;;;4996010;28;20050;-73
2021/03/21 10:31:34;;;;;;;16.77;11.33;;;11.10;61.90;;;;;;4996123;28;20042;-73
2021/03/21 10:34:03;;;;;;;13.30;10.45;;;11.10;62.70;;;;;;4996013;28;20277;-73
2021/03/21 10:36:38;;;;;;;14.25;10.95;;;11.20;61.90;;;;;;4995222;28;20049;-74
2021/03/21 10:42:43;;;;;;;14.77;11.23;;;11.10;62.40;;;;;;4986518;28;20100;-74
2021/03/21 10:45:16;;;;;;;14.57;11.98;;;11.00;63.50;;;;;;4995517;28;20041;-74
2021/03/21 10:47:46;;;;;;;15.60;11.60;;;11.00;62.80;;;;;;4996002;28;20046;-73
2021/03/21 10:50:30;;;;;;;16.85;11.27;;;11.00;63.30;;;;;;4995590;28;20070;-74
2021/03/21 10:53:21;;;;;;;16.50;10.75;;;10.80;64.20;;;;;;4994385;28;20038;-74
2021/03/21 10:56:04;;;;;;;17.02;11.07;;;10.80;63.40;;;;;;4995474;28;20049;-75
2021/03/21 10:58:36;;;;;;;14.20;11.10;;;10.90;63.40;;;;;;4995346;28;20084;-74
2021/03/21 11:01:20;;;;;;;16.60;11.60;;;10.80;63.80;;;;;;4995642;28;20183;-74
2021/03/21 11:03:55;;;;;;;17.75;11.95;;;10.90;63.80;;;;;;4995425;28;20092;-74
2021/03/21 11:06:22;;;;;;;16.58;13.02;;;11.00;64.10;;;;;;4977154;28;20436;-74
2021/03/21 11:08:49;;;;;;;18.83;14.32;;;11.00;65.60;;;;;;4994552;28;20499;-75
2021/03/21 11:11:22;;;;;;;17.27;14.95;;;10.90;67.10;;;;;;4994668;28;20076;-74
2021/03/21 11:13:49;;;;;;;20.15;13.95;;;10.90;68.10;;;;;;4994870;28;20149;-74
2021/03/21 11:16:19;;;;;;;17.25;13.88;;;10.70;67.70;;;;;;4995233;28;20501;-74
2021/03/21 11:19:03;;;;;;;19.58;13.82;;;10.70;68.20;;;;;;4995004;28;20594;-74
2021/03/21 11:21:33;;;;;;;20.15;13.07;;;10.60;67.20;;;;;;4994729;28;20069;-74
2021/03/21 11:24:03;;;;;;;16.38;12.88;;;10.50;67.80;;;;;;4994777;28;20049;-74
2021/03/21 11:26:34;;;;;;;18.30;13.20;;;10.50;67.80;;;;;;4976873;28;20054;-74
2021/03/21 11:29:31;;;;;;;16.80;14.15;;;10.50;68.60;;;;;;4977041;28;20044;-74
2021/03/21 11:32:02;;;;;;;21.27;14.93;;;10.60;69.30;;;;;;4984459;28;20131;-74
2021/03/21 11:34:34;;;;;;;19.20;14.43;;;10.50;69.80;;;;;;4995155;28;20042;-74
2021/03/21 11:37:12;;;;;;;20.80;14.73;;;10.50;69.90;;;;;;4994967;28;20053;-74
2021/03/21 11:39:53;;;;;;;18.33;13.43;;;10.60;69.50;;;;;;4994850;28;20491;-74
2021/03/21 11:42:25;;;;;;;19.70;14.73;;;10.50;69.00;;;;;;4990033;28;20123;-79
2021/03/21 11:45:12;;;;;;;18.23;14.23;;;10.50;69.60;;;;;;4957440;28;20400;-75
2021/03/21 11:47:59;;;;;;;18.08;13.18;;;10.40;69.70;;;;;;4974803;28;20395;-75
2021/03/21 11:50:33;;;;;;;18.25;14.38;;;10.30;69.30;;;;;;4935094;28;20039;-75
2021/03/21 11:53:01;;;;;;;17.83;13.55;;;10.20;70.60;;;;;;4973556;28;20399;-75
2021/03/21 11:55:31;;;;;;;17.40;12.63;;;10.20;69.40;;;;;;4973348;28;20141;-75
2021/03/21 11:58:12;;;;;;;20.15;13.68;;;10.20;69.40;;;;;;4974700;28;20047;-75
2021/03/21 12:00:41;;;;;;;17.95;13.25;;;10.30;69.20;;;;;;4974888;28;20066;-76
2021/03/21 12:03:16;;;;;;;17.42;13.27;;;10.40;69.00;;;;;;4971818;28;20065;-75
2021/03/21 12:05:44;;;;;;;17.52;13.15;;;10.40;68.40;;;;;;4977351;28;20126;-76
2021/03/21 12:08:13;;;;;;;18.75;12.70;;;10.30;68.70;;;;;;4977566;28;20112;-76
2021/03/21 12:10:41;;;;;;;19.35;14.02;;;10.40;68.70;;;;;;4978368;28;20049;-77
2021/03/21 12:13:31;;;;;;;18.67;13.38;;;10.50;68.30;;;;;;4977923;28;20077;-77
2021/03/21 12:15:58;;;;;;;18.63;12.93;;;10.60;67.60;;;;;;4978149;28;20077;-76
2021/03/21 12:18:27;;;;;;;15.75;12.35;;;10.70;67.20;;;;;;4979102;28;20070;-80
2021/03/21 12:20:55;;;;;;;16.55;12.55;;;10.80;66.00;;;;;;4961590;28;20039;-78
2021/03/21 12:23:31;;;;;;;15.68;12.48;;;10.90;66.30;;;;;;4977351;28;20054;-79
2021/03/21 12:26:12;;;;;;;15.25;12.43;;;10.90;66.10;;;;;;4978665;28;20038;-80
2021/03/21 12:28:51;;;;;;;15.55;11.15;;;11.00;64.40;;;;;;4978570;28;20536;-80
2021/03/21 12:31:38;;;;;;;15.95;12.35;;;11.20;64.00;;;;;;4977282;28;20038;-80
2021/03/21 12:34:36;;;;;;;15.70;11.88;;;11.20;64.20;;;;;;4977519;28;20034;-80
2021/03/21 12:37:29;;;;;;;17.50;11.73;;;11.40;63.70;;;;;;4977602;28;20046;-83
2021/03/21 12:40:03;;;;;;;30.15;16.27;;;11.60;62.70;;;;;;4960310;28;20129;-79
2021/03/21 12:42:34;;;;;;;16.05;11.60;;;11.40;63.70;;;;;;4960459;28;20055;-79
2021/03/21 12:45:08;;;;;;;16.52;12.52;;;11.30;63.70;;;;;;4960593;28;20518;-79
2021/03/21 12:47:38;;;;;;;16.85;12.40;;;11.20;64.20;;;;;;4977008;28;20531;-79
2021/03/21 12:50:32;;;;;;;18.02;12.05;;;11.20;64.80;;;;;;4977963;28;20531;-79
2021/03/21 12:52:59;;;;;;;17.00;11.98;;;11.30;64.90;;;;;;4978128;28;20064;-79
2021/03/21 12:55:25;;;;;;;17.23;11.13;;;11.40;63.60;;;;;;4977790;28;20039;-79
2021/03/21 12:57:55;;;;;;;22.65;11.98;;;11.20;64.40;;;;;;4976736;28;20038;-79
2021/03/21 13:00:34;;;;;;;15.63;11.15;;;11.20;65.00;;;;;;4960866;28;20039;-80
2021/03/21 13:03:13;;;;;;;16.05;10.77;;;11.20;64.60;;;;;;4975066;28;20507;-80
2021/03/21 13:05:45;;;;;;;16.52;11.15;;;11.40;65.10;;;;;;4959428;28;20514;-80
2021/03/21 13:08:15;;;;;;;15.68;10.45;;;11.60;64.70;;;;;;4977707;28;20077;-79
2021/03/21 13:10:47;;;;;;;14.85;10.48;;;11.40;63.70;;;;;;4976785;28;20399;-80
2021/03/21 13:13:20;;;;;;;20.75;11.93;;;11.30;64.60;;;;;;4974379;28;20035;-80
2021/03/21 13:15:51;;;;;;;16.30;11.68;;;11.40;64.20;;;;;;4974930;28;20087;-80
2021/03/21 13:18:26;;;;;;;17.52;11.52;;;11.30;64.50;;;;;;4976794;28;20038;-80
2021/03/21 13:20:59;;;;;;;15.18;10.88;;;11.10;64.70;;;;;;4976784;28;20566;-80
2021/03/21 13:23:26;;;;;;;18.90;11.90;;;11.30;64.80;;;;;;4976566;28;20039;-80
2021/03/21 13:25:58;;;;;;;16.52;11.50;;;11.30;64.70;;;;;;4976553;28;20042;-80
2021/03/21 13:28:27;;;;;;;14.35;9.88;;;11.30;64.20;;;;;;4976504;28;20035;-80
2021/03/21 13:30:58;;;;;;;17.98;11.10;;;11.20;64.40;;;;;;4961181;28;20138;-80
2021/03/21 13:33:49;;;;;;;18.33;11.02;;;11.20;64.80;;;;;;4976310;28;20126;-80